Platzwetter Flugplatz Wels

Flugwetter Linz LOWL

[Quelle: ADDS]
METAR
LOWL 242250Z AUTO 11004KT 070V140 0350 R08/0450N FG FEW000 OVC001 M00/M00 Q1034 =
AMD LOWL 242102Z 2421/2518 VRB02KT 9999 BKN030 TX03/2514Z TNM01/2506Z PROB30 TEMPO 2421/2502 0200 FZFG BKN001 BECMG 2500/2502 4000 BKN007 TEMPO 2502/2518 6000 BKN012
TAF
AMD LOWL 242102Z 2421/2518 VRB02KT 9999 BKN030 TX03/2514Z TNM01/2506Z PROB30 TEMPO 2421/2502 0200 FZFG BKN001 BECMG 2500/2502 4000 BKN007 TEMPO 2502/2518 6000 BKN012 =

Flugwetter Salzburg LOWS

[Quelle: ADDS]
METAR
LOWS 242250Z AUTO VRB02KT 0450 R15/0450N R33/0550N FZFG BKN001 M03/M03 Q1033 =
AMD LOWS 241829Z 2418/2518 15004KT 9999 FEW012 TX03/2514Z TNM03/2506Z TEMPO 2418/2510 VRB02KT 1200 BCFG SCT005 PROB30 TEMPO 2418/2508 0200 FZFG VV001 BECMG 2510/2512 02006KT 9999 FEW010 BECMG 2516/2518 15004KT
TAF
AMD LOWS 241829Z 2418/2518 15004KT 9999 FEW012 TX03/2514Z TNM03/2506Z TEMPO 2418/2510 VRB02KT 1200 BCFG SCT005 PROB30 TEMPO 2418/2508 0200 FZFG VV001 BECMG 2510/2512 02006KT 9999 FEW010 BECMG 2516/2518 15004KT =

Wind - Verlauf

Windrichtung - Verlauf

Temperatur - Verlauf

Relative Luftfeuchtigkeit - Verlauf

Luftdruck - Verlauf

Wir benutzen Cookies

Wir nutzen Cookies auf unserer Website. Einige von ihnen sind essenziell für den Betrieb der Seite, während andere uns helfen, diese Website und die Nutzererfahrung zu verbessern (Tracking Cookies). Sie können selbst entscheiden, ob Sie die Cookies zulassen möchten. Bitte beachten Sie, dass bei einer Ablehnung womöglich nicht mehr alle Funktionalitäten der Seite zur Verfügung stehen.